createdAt,value
2022-09-28T10:11:30.834Z,2.00
2022-09-28T17:12:41.948Z,2.50
2022-09-28T18:51:41.437Z,3.25
2022-09-28T19:48:37.959Z,3.20
2022-09-28T20:05:18.926Z,3.10
2022-09-28T20:10:54.710Z,3.35
2022-09-28T20:13:23.290Z,3.10
2022-09-28T20:15:51.251Z,3.00
2022-09-28T20:18:19.313Z,3.60
2022-09-28T20:20:47.306Z,4.07
2022-09-28T20:23:14.831Z,4.65
2022-09-28T20:25:42.224Z,5.03
2022-09-28T20:28:09.776Z,3.78
2022-09-28T20:30:38.568Z,3.97
2022-09-28T20:33:07.994Z,3.47
2022-09-28T20:35:40.745Z,4.00
2022-09-28T20:38:13.133Z,3.88
2022-09-28T20:40:41.167Z,3.55
2022-09-28T20:43:09.736Z,3.67
2022-09-28T20:45:37.595Z,3.38
2022-09-28T20:48:08.426Z,3.75
2022-09-28T20:50:35.829Z,3.70
2022-09-28T20:53:03.365Z,3.33
2022-09-28T20:55:30.830Z,3.38
2022-09-28T20:58:03.676Z,3.30
2022-09-28T21:00:32.540Z,3.33
2022-09-28T21:03:00.183Z,3.80
2022-09-28T21:05:27.703Z,3.50
2022-09-28T21:07:58.985Z,3.70
2022-09-28T21:10:30.597Z,3.80
2022-09-28T21:12:58.070Z,3.70
2022-09-28T21:15:25.937Z,3.72
2022-09-28T21:17:53.369Z,4.05
2022-09-28T21:20:20.906Z,3.90
2022-09-28T21:22:48.344Z,4.03
2022-09-28T21:25:15.792Z,5.00
2022-09-28T21:27:43.186Z,4.63
2022-09-28T21:30:11.402Z,4.30
2022-09-28T21:32:38.792Z,4.53
2022-09-28T21:35:06.961Z,4.20
2022-09-28T21:37:34.356Z,4.55
2022-09-28T21:40:05.481Z,4.20
2022-09-28T21:42:36.024Z,4.05
2022-09-28T21:45:04.114Z,3.80
2022-09-28T21:47:36.498Z,4.32
2022-09-28T21:50:04.957Z,4.00
2022-09-28T21:52:32.381Z,3.70
2022-09-28T21:54:59.804Z,4.38
2022-09-28T21:57:27.385Z,3.80
2022-09-28T21:59:54.880Z,4.30
2022-09-28T22:02:23.310Z,4.50
2022-09-28T22:04:52.560Z,4.60
2022-09-28T22:07:23.267Z,4.60
2022-09-28T22:09:53.542Z,4.78
2022-09-28T22:12:21.118Z,4.82
2022-09-28T22:14:48.659Z,4.43
2022-09-28T22:17:16.292Z,4.63
2022-09-28T22:19:43.883Z,4.50
2022-09-28T22:22:12.082Z,4.47
2022-09-28T22:24:39.575Z,4.20
2022-09-28T22:27:07.129Z,4.70
2022-09-28T22:29:35.112Z,4.88
2022-09-28T22:32:03.308Z,5.28
2022-09-28T22:34:31.858Z,5.45
2022-09-28T22:37:00.425Z,5.35
2022-09-28T22:39:27.967Z,5.38
2022-09-28T22:41:55.754Z,5.50
2022-09-28T22:44:23.263Z,5.65
2022-09-28T22:46:50.929Z,5.90
2022-09-28T22:49:18.964Z,6.47
2022-09-28T22:51:46.516Z,6.00
2022-09-28T22:54:17.199Z,5.70
2022-09-28T22:56:47.730Z,6.25
2022-09-28T22:59:15.647Z,6.20
2022-09-28T23:01:43.308Z,5.85
2022-09-28T23:04:10.866Z,5.47
2022-09-28T23:06:38.252Z,5.38
2022-09-28T23:09:05.814Z,5.50
2022-09-28T23:11:33.216Z,5.60
2022-09-28T23:14:01.175Z,5.70
2022-09-28T23:16:30.139Z,5.50
2022-09-28T23:18:58.616Z,5.53
2022-09-28T23:21:27.766Z,4.60
2022-09-28T23:24:03.726Z,3.75
2022-09-28T23:26:34.547Z,3.50
2022-09-28T23:29:02.399Z,3.75
2022-09-28T23:31:36.202Z,3.35
2022-09-28T23:34:07.073Z,3.63
2022-09-28T23:36:38.081Z,3.72
2022-09-28T23:39:05.576Z,4.00
2022-09-28T23:41:33.187Z,4.18
2022-09-28T23:44:01.168Z,4.15
2022-09-28T23:46:29.521Z,4.07
2022-09-28T23:48:57.064Z,3.40
2022-09-28T23:51:25.501Z,2.70
2022-09-28T23:53:53.054Z,2.50
2022-09-28T23:56:21.260Z,2.70
2022-09-28T23:58:50.039Z,3.10
